Time;durP1;ratioP1;P1;durP2;ratioP2;P2;SDS_P1;SDS_P2;PMS_P1;PMS_P2;Temp;Humidity;BMP_temperature;BMP_pressure;BME280_temperature;BME280_humidity;BME280_pressure;Samples;Min_cycle;Max_cycle;Signal;HPM_P1;HPM_P2
2023/01/02 00:00:45;;;;;;;13.75;2.70;;;;;;;;;;5087667;28;20058;-48
2023/01/02 00:03:11;;;;;;;17.08;3.33;;;;;;;;;;5087432;28;20434;-49
2023/01/02 00:05:37;;;;;;;12.02;3.38;;;;;;;;;;5087523;28;20024;-49
2023/01/02 00:08:03;;;;;;;10.68;3.38;;;;;;;;;;5087650;28;20020;-48
2023/01/02 00:10:29;;;;;;;15.45;3.83;;;;;;;;;;5087163;28;20028;-47
2023/01/02 00:12:55;;;;;;;13.43;3.60;;;;;;;;;;5087204;28;20032;-50
2023/01/02 00:15:21;;;;;;;12.02;3.00;;;;;;;;;;5087177;28;20103;-51
2023/01/02 00:17:47;;;;;;;12.40;3.05;;;;;;;;;;5089030;28;20109;-48
2023/01/02 00:20:13;;;;;;;16.80;3.28;;;;;;;;;;5103456;28;20498;-48
2023/01/02 00:22:39;;;;;;;12.52;2.75;;;;;;;;;;5089063;28;20478;-50
2023/01/02 00:25:05;;;;;;;10.95;3.03;;;;;;;;;;5089240;28;20700;-50
2023/01/02 00:27:31;;;;;;;11.63;2.80;;;;;;;;;;5088388;28;20028;-48
2023/01/02 00:29:57;;;;;;;14.15;3.13;;;;;;;;;;5089816;28;20574;-48
2023/01/02 00:32:23;;;;;;;11.57;2.78;;;;;;;;;;5100064;28;20047;-49
2023/01/02 00:34:49;;;;;;;8.35;2.67;;;;;;;;;;5089087;28;20111;-48
2023/01/02 00:37:15;;;;;;;12.13;3.33;;;;;;;;;;5088614;28;20028;-49
2023/01/02 00:39:41;;;;;;;10.18;2.42;;;;;;;;;;5088435;28;20025;-51
2023/01/02 00:42:07;;;;;;;16.67;2.88;;;;;;;;;;5088665;28;20024;-50
2023/01/02 00:44:33;;;;;;;16.48;2.78;;;;;;;;;;5088312;28;20024;-48
2023/01/02 00:46:59;;;;;;;12.50;2.80;;;;;;;;;;5088274;28;20039;-49
2023/01/02 00:49:25;;;;;;;12.10;3.10;;;;;;;;;;5087946;28;20101;-48
2023/01/02 00:51:51;;;;;;;9.13;2.70;;;;;;;;;;5088510;28;20375;-48
2023/01/02 00:54:17;;;;;;;13.30;3.03;;;;;;;;;;5106699;28;20031;-51
2023/01/02 00:56:43;;;;;;;9.95;2.80;;;;;;;;;;5108450;28;20028;-49
2023/01/02 00:59:09;;;;;;;9.10;2.85;;;;;;;;;;5108546;28;20020;-48
2023/01/02 01:01:35;;;;;;;12.05;2.55;;;;;;;;;;5108699;28;20027;-50
2023/01/02 06:10:58;;;;;;;9.73;2.75;;;;;;;;;;5095351;28;20111;-47
2023/01/02 06:13:24;;;;;;;11.90;2.67;;;;;;;;;;5107801;28;20031;-48
2023/01/02 06:15:50;;;;;;;9.63;1.80;;;;;;;;;;5107783;28;20110;-47
2023/01/02 06:18:16;;;;;;;9.25;2.50;;;;;;;;;;5107763;28;20023;-50
2023/01/02 06:20:42;;;;;;;13.73;2.58;;;;;;;;;;5107819;28;20474;-48
2023/01/02 06:23:08;;;;;;;10.38;2.42;;;;;;;;;;5100843;28;20115;-48
2023/01/02 06:25:34;;;;;;;10.73;2.92;;;;;;;;;;5087614;28;20099;-49
2023/01/02 06:28:00;;;;;;;14.55;2.65;;;;;;;;;;5087811;28;20494;-48
2023/01/02 06:30:26;;;;;;;11.70;2.72;;;;;;;;;;5087164;28;20032;-50
2023/01/02 06:32:52;;;;;;;13.60;2.65;;;;;;;;;;5087754;28;20125;-50
2023/01/02 06:35:18;;;;;;;10.40;2.53;;;;;;;;;;5087110;28;20040;-48
2023/01/02 06:37:44;;;;;;;9.25;2.90;;;;;;;;;;5092923;28;20049;-49
2023/01/02 06:40:11;;;;;;;9.57;2.28;;;;;;;;;;5107802;28;20399;-49
2023/01/02 06:42:37;;;;;;;13.98;2.40;;;;;;;;;;5107479;28;20102;-48
2023/01/02 06:45:03;;;;;;;24.35;2.97;;;;;;;;;;5107869;28;20099;-48
2023/01/02 06:47:29;;;;;;;10.80;2.88;;;;;;;;;;5107546;28;20103;-47
2023/01/02 06:49:55;;;;;;;10.57;2.25;;;;;;;;;;5107554;28;20036;-48
2023/01/02 06:52:22;;;;;;;13.68;2.90;;;;;;;;;;5101626;28;20029;-49
2023/01/02 06:54:48;;;;;;;8.68;2.10;;;;;;;;;;5087271;28;20675;-51
2023/01/02 06:57:14;;;;;;;10.50;2.50;;;;;;;;;;5094266;28;20035;-49
2023/01/02 06:59:40;;;;;;;14.50;2.88;;;;;;;;;;5106965;28;20023;-46
2023/01/02 07:02:06;;;;;;;7.22;2.67;;;;;;;;;;5092582;28;20020;-48
2023/01/02 07:04:32;;;;;;;10.52;2.65;;;;;;;;;;5087125;28;20062;-47
2023/01/02 07:06:59;;;;;;;6.80;2.35;;;;;;;;;;5100740;28;20735;-49
2023/01/02 07:09:26;;;;;;;7.70;2.30;;;;;;;;;;5106963;28;20031;-50
2023/01/02 07:11:52;;;;;;;13.05;2.50;;;;;;;;;;5108916;28;20045;-47
2023/01/02 07:14:18;;;;;;;7.30;2.30;;;;;;;;;;5110465;28;20039;-47
2023/01/02 07:16:44;;;;;;;8.52;2.45;;;;;;;;;;5108291;28;20133;-51
2023/01/02 07:19:10;;;;;;;17.35;3.30;;;;;;;;;;5092584;28;20415;-48
2023/01/02 07:21:37;;;;;;;12.20;2.58;;;;;;;;;;5110596;28;20028;-51
2023/01/02 07:24:03;;;;;;;11.02;2.72;;;;;;;;;;5111297;28;20023;-48
2023/01/02 07:26:29;;;;;;;7.97;2.30;;;;;;;;;;5110671;28;20028;-50
2023/01/02 07:28:55;;;;;;;12.02;2.70;;;;;;;;;;5110636;28;20058;-49
2023/01/02 07:31:21;;;;;;;9.73;2.60;;;;;;;;;;5108676;28;20029;-52
2023/01/02 07:33:47;;;;;;;9.40;2.22;;;;;;;;;;5098943;28;20160;-50
2023/01/02 07:36:15;;;;;;;10.15;2.40;;;;;;;;;;5108659;28;20043;-48
2023/01/02 07:38:41;;;;;;;9.10;2.10;;;;;;;;;;5110710;28;20028;-51
2023/01/02 07:41:17;;;;;;;9.90;2.58;;;;;;;;;;5092210;28;20479;-50
2023/01/02 07:43:44;;;;;;;11.52;2.70;;;;;;;;;;5110199;28;20065;-49
2023/01/02 07:46:11;;;;;;;12.68;2.78;;;;;;;;;;5110904;28;20072;-52
2023/01/02 07:48:37;;;;;;;7.47;2.35;;;;;;;;;;5111197;28;20019;-48
2023/01/02 07:51:05;;;;;;;9.93;2.38;;;;;;;;;;5095500;28;20036;-47
2023/01/02 07:53:31;;;;;;;11.68;2.70;;;;;;;;;;5090770;28;20667;-49
2023/01/02 07:55:58;;;;;;;10.35;2.45;;;;;;;;;;5102102;28;20042;-48
2023/01/02 07:58:24;;;;;;;7.97;2.90;;;;;;;;;;5110535;28;20028;-49
2023/01/02 08:00:50;;;;;;;7.20;2.15;;;;;;;;;;5111008;27;20153;-49
2023/01/02 08:03:16;;;;;;;9.00;2.08;;;;;;;;;;5131418;27;20436;-49
2023/01/02 08:05:43;;;;;;;13.73;2.78;;;;;;;;;;5124940;27;20028;-48
2023/01/02 08:08:09;;;;;;;10.45;2.13;;;;;;;;;;5107280;28;20031;-48
2023/01/02 08:10:36;;;;;;;9.20;2.53;;;;;;;;;;5102871;28;20043;-47
2023/01/02 08:13:03;;;;;;;12.75;2.65;;;;;;;;;;5108018;28;20034;-48
2023/01/02 08:15:29;;;;;;;8.68;2.25;;;;;;;;;;5092491;28;20076;-49
2023/01/02 08:17:56;;;;;;;7.05;2.22;;;;;;;;;;5104789;28;20446;-47
2023/01/02 08:20:22;;;;;;;12.00;2.85;;;;;;;;;;5107598;28;20059;-48
2023/01/02 08:22:48;;;;;;;7.82;2.20;;;;;;;;;;5108846;28;20045;-48
2023/01/02 08:30:26;;;;;;;10.50;2.50;;;;;;;;;;5433326;23;20392;-42
2023/01/02 08:32:52;;;;;;;10.43;2.60;;;;;;;;;;5009496;28;20060;-43
2023/01/02 08:35:18;;;;;;;7.50;2.20;;;;;;;;;;5007717;28;20030;-42
2023/01/02 08:37:44;;;;;;;13.35;2.60;;;;;;;;;;5009467;28;20829;-42
2023/01/02 08:40:10;;;;;;;10.07;2.40;;;;;;;;;;5009423;28;20030;-42
2023/01/02 08:42:36;;;;;;;9.50;2.40;;;;;;;;;;5009332;28;20021;-41
2023/01/02 08:45:02;;;;;;;7.68;2.67;;;;;;;;;;5009520;28;20435;-42
2023/01/02 08:47:28;;;;;;;5.63;2.08;;;;;;;;;;5006038;28;20025;-42
2023/01/02 08:49:55;;;;;;;7.60;1.98;;;;;;;;;;5009459;28;20065;-41
2023/01/02 08:52:21;;;;;;;10.70;2.58;;;;;;;;;;5009309;28;20651;-42
2023/01/02 08:54:47;;;;;;;13.30;2.53;;;;;;;;;;5010147;28;20100;-42
2023/01/02 08:57:13;;;;;;;8.88;3.22;;;;;;;;;;5007464;28;20037;-41
2023/01/02 08:59:39;;;;;;;6.30;1.83;;;;;;;;;;5007762;28;20049;-42
2023/01/02 09:02:05;;;;;;;7.15;1.85;;;;;;;;;;5009771;28;20038;-41
2023/01/02 09:04:31;;;;;;;12.35;2.20;;;;;;;;;;5010237;28;20022;-42
2023/01/02 09:09:33;;;;;;;11.63;2.33;;;;;;;;;;5678187;23;20050;-44
2023/01/02 09:11:59;;;;;;;6.55;2.10;;;;;;;;;;5027319;28;20079;-44
2023/01/02 09:14:25;;;;;;;7.05;1.98;;;;;;;;;;5040213;28;20740;-46
2023/01/02 09:16:51;;;;;;;8.38;2.45;;;;;;;;;;5027646;28;20086;-47
2023/01/02 09:19:18;;;;;;;8.20;1.80;;;;;;;;;;5028142;28;20053;-46
2023/01/02 09:21:44;;;;;;;6.63;2.40;;;;;;;;;;5027598;28;20458;-44
2023/01/02 09:24:10;;;;;;;9.85;2.58;;;;;;;;;;5029501;28;20022;-44
2023/01/02 09:26:37;;;;;;;6.60;2.45;;;;;;;;;;5029022;28;20112;-45
2023/01/02 09:29:03;;;;;;;8.57;2.33;;;;;;;;;;5028551;28;20029;-46
2023/01/02 09:31:30;;;;;;;10.98;2.85;;;;;;;;;;5029495;28;20754;-47
2023/01/02 09:33:56;;;;;;;5.30;1.63;;;;;;;;;;5027599;28;20033;-47
2023/01/02 09:36:22;;;;;;;15.52;3.25;;;;;;;;;;5029162;28;20030;-44
2023/01/02 09:38:52;;;;;;;6.78;1.95;;;;;;;;;;5029113;28;20040;-45
2023/01/02 09:41:21;;;;;;;8.88;1.90;;;;;;;;;;5026932;28;20026;-47
2023/01/02 09:43:49;;;;;;;6.85;2.00;;;;;;;;;;5026065;28;20063;-44
2023/01/02 09:46:38;;;;;;;6.05;2.25;;;;;;;;;;5009440;28;20057;-44
2023/01/02 09:49:04;;;;;;;6.20;1.92;;;;;;;;;;5008652;28;20044;-47
2023/01/02 09:51:32;;;;;;;6.63;2.45;;;;;;;;;;5049300;28;20033;-43
2023/01/02 09:53:58;;;;;;;9.10;2.33;;;;;;;;;;5049045;28;20029;-43
2023/01/02 09:56:26;;;;;;;7.93;2.35;;;;;;;;;;5048659;28;20036;-44
2023/01/02 09:59:03;;;;;;;7.97;2.00;;;;;;;;;;5027648;28;20100;-46
2023/01/02 10:01:33;;;;;;;7.38;2.22;;;;;;;;;;5008908;28;20053;-44
2023/01/02 10:04:11;;;;;;;9.02;2.35;;;;;;;;;;5009291;28;20103;-43
2023/01/02 10:07:00;;;;;;;6.88;2.15;;;;;;;;;;5009246;28;20041;-43
2023/01/02 10:09:34;;;;;;;9.23;2.67;;;;;;;;;;5008361;28;20044;-43
2023/01/02 10:12:11;;;;;;;7.43;2.27;;;;;;;;;;5008945;28;20026;-44
2023/01/02 10:14:55;;;;;;;16.35;2.53;;;;;;;;;;5009091;28;20029;-47
2023/01/02 10:17:21;;;;;;;8.95;2.33;;;;;;;;;;5020044;28;20099;-45
2023/01/02 10:20:03;;;;;;;7.75;2.30;;;;;;;;;;5028682;28;20056;-45
2023/01/02 10:22:36;;;;;;;9.32;2.40;;;;;;;;;;5028225;28;20644;-47
2023/01/02 10:25:14;;;;;;;6.75;2.30;;;;;;;;;;5016021;28;20440;-45
2023/01/02 10:27:47;;;;;;;6.78;1.95;;;;;;;;;;5011666;28;20057;-45
2023/01/02 10:30:18;;;;;;;7.78;2.28;;;;;;;;;;5032580;28;20395;-43
2023/01/02 10:32:46;;;;;;;3.60;2.00;;;;;;;;;;5027807;28;20033;-44
2023/01/02 10:35:21;;;;;;;10.23;2.00;;;;;;;;;;5028745;28;20197;-44
2023/01/02 10:37:47;;;;;;;6.45;2.10;;;;;;;;;;5028617;28;20026;-43
2023/01/02 10:40:13;;;;;;;9.43;2.35;;;;;;;;;;5028670;28;20455;-43
2023/01/02 10:42:39;;;;;;;4.20;1.80;;;;;;;;;;5028241;28;20076;-44
2023/01/02 10:45:07;;;;;;;8.23;2.25;;;;;;;;;;5028405;28;20044;-44
2023/01/02 10:47:37;;;;;;;6.03;2.33;;;;;;;;;;5027885;28;20025;-46
2023/01/02 10:50:07;;;;;;;8.77;2.25;;;;;;;;;;5016344;28;20034;-42
2023/01/02 10:52:38;;;;;;;6.90;2.00;;;;;;;;;;5032773;28;20025;-43
2023/01/02 10:55:05;;;;;;;7.15;2.45;;;;;;;;;;5028534;28;20100;-46
2023/01/02 10:57:44;;;;;;;5.90;2.33;;;;;;;;;;5043356;28;20029;-43
2023/01/02 11:00:19;;;;;;;9.05;2.30;;;;;;;;;;5025168;28;20033;-43
2023/01/02 11:02:52;;;;;;;9.32;2.22;;;;;;;;;;5017625;28;20029;-42
2023/01/02 11:05:29;;;;;;;9.30;2.22;;;;;;;;;;5029141;28;20437;-47
2023/01/02 11:07:55;;;;;;;9.40;2.35;;;;;;;;;;5024202;28;20056;-44
2023/01/02 11:10:24;;;;;;;5.80;2.28;;;;;;;;;;5027703;28;20045;-44
2023/01/02 11:15:29;;;;;;;5.00;2.00;;;;;;;;;;5394950;23;20163;-48
2023/01/02 11:17:56;;;;;;;7.57;2.42;;;;;;;;;;5029258;28;20862;-49
2023/01/02 11:20:27;;;;;;;5.88;2.00;;;;;;;;;;5030088;28;20022;-49
2023/01/02 11:22:55;;;;;;;8.88;2.45;;;;;;;;;;5030201;28;20109;-45
2023/01/02 11:25:40;;;;;;;9.98;2.25;;;;;;;;;;5029446;28;20045;-48
2023/01/02 11:28:12;;;;;;;4.95;1.77;;;;;;;;;;5030691;28;20072;-48
2023/01/02 11:30:46;;;;;;;6.15;2.33;;;;;;;;;;5025121;28;20037;-45
2023/01/02 11:33:15;;;;;;;5.82;2.15;;;;;;;;;;5018429;28;20108;-47
2023/01/02 11:35:45;;;;;;;5.75;2.13;;;;;;;;;;5022200;28;20084;-46
2023/01/02 11:38:15;;;;;;;5.53;1.90;;;;;;;;;;5027679;28;20044;-47
2023/01/02 11:40:50;;;;;;;4.75;1.90;;;;;;;;;;5028841;28;20108;-48
2023/01/02 11:46:08;;;;;;;7.95;2.33;;;;;;;;;;5022856;28;20059;-46
2023/01/02 11:48:35;;;;;;;4.93;2.00;;;;;;;;;;5031204;28;20496;-46
2023/01/02 11:51:01;;;;;;;6.57;2.03;;;;;;;;;;5030070;28;20030;-50
2023/01/02 11:53:32;;;;;;;5.85;1.92;;;;;;;;;;5029789;28;20378;-48
2023/01/02 11:56:05;;;;;;;6.82;2.20;;;;;;;;;;5027607;28;20026;-48
2023/01/02 11:58:43;;;;;;;4.38;2.13;;;;;;;;;;5016585;28;20025;-47
2023/01/02 12:01:09;;;;;;;8.18;2.20;;;;;;;;;;5026008;28;20057;-46
2023/01/02 12:03:35;;;;;;;15.80;2.40;;;;;;;;;;5028429;28;20044;-50
2023/01/02 12:06:07;;;;;;;9.85;2.47;;;;;;;;;;5031108;28;20021;-48
2023/01/02 12:08:33;;;;;;;10.93;2.25;;;;;;;;;;5029190;28;20085;-47
2023/01/02 12:11:14;;;;;;;8.15;2.00;;;;;;;;;;5028090;28;20376;-47
2023/01/02 12:13:55;;;;;;;3.92;2.25;;;;;;;;;;5018717;28;20030;-47
2023/01/02 12:16:21;;;;;;;5.80;2.38;;;;;;;;;;5020567;28;20045;-48
2023/01/02 12:18:50;;;;;;;8.27;2.33;;;;;;;;;;5026748;28;20025;-47
2023/01/02 12:21:24;;;;;;;6.00;2.00;;;;;;;;;;5022558;28;20049;-48
2023/01/02 12:24:13;;;;;;;7.32;2.13;;;;;;;;;;5024285;28;20030;-51
2023/01/02 12:26:51;;;;;;;5.95;2.03;;;;;;;;;;5013303;28;20535;-48
2023/01/02 12:29:23;;;;;;;5.90;2.33;;;;;;;;;;5021791;28;20550;-50
2023/01/02 12:31:58;;;;;;;7.55;2.33;;;;;;;;;;5027271;28;20021;-51
2023/01/02 12:34:33;;;;;;;6.97;2.30;;;;;;;;;;5027160;28;20392;-48
2023/01/02 12:37:18;;;;;;;7.40;2.47;;;;;;;;;;5026455;28;20029;-51
2023/01/02 12:39:49;;;;;;;6.10;1.80;;;;;;;;;;5025902;28;20075;-49
2023/01/02 12:42:15;;;;;;;6.45;1.75;;;;;;;;;;5027001;28;20057;-50
2023/01/02 12:44:41;;;;;;;5.72;1.98;;;;;;;;;;5027031;28;20083;-50
2023/01/02 12:47:19;;;;;;;6.78;2.70;;;;;;;;;;5023770;28;20052;-49
2023/01/02 12:49:58;;;;;;;10.98;2.58;;;;;;;;;;5027505;28;20103;-48
2023/01/02 12:52:42;;;;;;;8.27;2.72;;;;;;;;;;5021635;28;20029;-49
2023/01/02 12:55:15;;;;;;;6.95;2.60;;;;;;;;;;5008843;28;20033;-52
2023/01/02 12:57:51;;;;;;;7.03;2.22;;;;;;;;;;5027372;28;20188;-48
2023/01/02 13:00:20;;;;;;;7.40;1.95;;;;;;;;;;5021842;28;20403;-50
2023/01/02 13:02:55;;;;;;;11.02;2.88;;;;;;;;;;5026672;28;20497;-49
2023/01/02 13:05:24;;;;;;;6.28;1.83;;;;;;;;;;5026296;28;20037;-51
2023/01/02 13:07:54;;;;;;;5.00;2.10;;;;;;;;;;5027966;28;20061;-46
2023/01/02 13:10:21;;;;;;;4.88;1.83;;;;;;;;;;5026146;28;20041;-50
2023/01/02 13:12:47;;;;;;;6.80;2.17;;;;;;;;;;5027886;28;20025;-49
2023/01/02 13:15:16;;;;;;;6.32;2.03;;;;;;;;;;5026185;28;20082;-49
2023/01/02 13:17:42;;;;;;;7.90;2.22;;;;;;;;;;5020621;28;20029;-49
2023/01/02 13:20:20;;;;;;;8.05;2.20;;;;;;;;;;5021601;28;20037;-50
2023/01/02 13:22:51;;;;;;;8.45;2.00;;;;;;;;;;5027307;28;20491;-50
2023/01/02 13:25:18;;;;;;;6.15;2.22;;;;;;;;;;5026983;28;20076;-50
2023/01/02 13:27:45;;;;;;;3.78;1.70;;;;;;;;;;5027226;28;20040;-48
2023/01/02 13:30:34;;;;;;;5.65;2.15;;;;;;;;;;5027041;28;20637;-48
2023/01/02 13:33:01;;;;;;;5.65;2.03;;;;;;;;;;4987612;28;20045;-48
2023/01/02 13:35:36;;;;;;;6.50;1.83;;;;;;;;;;5026822;28;20029;-48
2023/01/02 13:38:04;;;;;;;9.73;2.60;;;;;;;;;;5025862;28;20025;-48
2023/01/02 13:40:32;;;;;;;5.82;1.73;;;;;;;;;;5026158;28;20060;-49
2023/01/02 13:43:02;;;;;;;6.35;2.10;;;;;;;;;;5026538;28;20056;-48
2023/01/02 13:45:29;;;;;;;4.32;1.80;;;;;;;;;;5006925;28;20068;-49
2023/01/02 13:47:58;;;;;;;8.52;2.08;;;;;;;;;;4999890;28;20869;-47
2023/01/02 13:50:24;;;;;;;3.05;1.60;;;;;;;;;;5026499;28;20029;-47
2023/01/02 13:53:13;;;;;;;4.35;1.60;;;;;;;;;;5025820;28;20029;-48
2023/01/02 13:55:39;;;;;;;3.75;1.98;;;;;;;;;;4989385;28;20041;-47
2023/01/02 13:58:17;;;;;;;4.28;1.55;;;;;;;;;;5025079;28;20036;-48
2023/01/02 14:00:47;;;;;;;5.30;1.77;;;;;;;;;;5014188;28;20078;-51
2023/01/02 14:03:22;;;;;;;5.22;2.08;;;;;;;;;;5018618;28;20437;-50
2023/01/02 14:05:57;;;;;;;3.22;1.50;;;;;;;;;;5021297;28;20061;-51
2023/01/02 14:08:25;;;;;;;5.85;2.67;;;;;;;;;;5020241;28;20049;-48
2023/01/02 14:10:55;;;;;;;5.20;2.38;;;;;;;;;;5016683;28;20039;-52
2023/01/02 14:13:24;;;;;;;6.95;2.63;;;;;;;;;;5024554;28;20037;-48
2023/01/02 14:16:10;;;;;;;8.43;2.25;;;;;;;;;;5024457;28;20037;-48
2023/01/02 14:18:36;;;;;;;7.97;2.30;;;;;;;;;;5026349;28;20045;-50
2023/01/02 14:21:02;;;;;;;4.25;2.13;;;;;;;;;;5010269;28;20032;-49
2023/01/02 14:23:40;;;;;;;6.07;2.25;;;;;;;;;;5013826;28;20040;-50
2023/01/02 14:26:06;;;;;;;4.78;2.05;;;;;;;;;;4998054;28;20042;-48
2023/01/02 14:28:36;;;;;;;4.75;2.15;;;;;;;;;;5029084;28;20041;-49
2023/01/02 14:31:03;;;;;;;8.75;2.33;;;;;;;;;;5028270;28;20025;-47
2023/01/02 14:33:35;;;;;;;5.75;2.45;;;;;;;;;;5029129;28;20083;-46
2023/01/02 14:36:11;;;;;;;6.45;2.92;;;;;;;;;;5028393;28;20029;-49
2023/01/02 14:38:58;;;;;;;6.32;3.22;;;;;;;;;;5012248;28;20029;-50
2023/01/02 14:44:27;;;;;;;8.18;3.30;;;;;;;;;;5030060;28;20036;-50
2023/01/02 14:46:53;;;;;;;12.27;3.83;;;;;;;;;;5029250;28;20030;-47
2023/01/02 14:49:23;;;;;;;8.63;3.05;;;;;;;;;;5011884;28;20385;-48
2023/01/02 14:52:00;;;;;;;7.70;3.15;;;;;;;;;;5027931;28;20416;-49
2023/01/02 14:54:33;;;;;;;10.98;4.20;;;;;;;;;;5027579;28;20033;-48
2023/01/02 14:57:22;;;;;;;6.05;3.30;;;;;;;;;;5030360;28;20400;-47
2023/01/02 14:59:52;;;;;;;8.23;3.70;;;;;;;;;;5024812;28;20026;-47
2023/01/02 15:02:19;;;;;;;5.60;2.70;;;;;;;;;;5027557;28;20296;-48
2023/01/02 15:04:45;;;;;;;6.72;2.65;;;;;;;;;;5010396;28;20048;-48
2023/01/02 15:07:13;;;;;;;6.32;2.78;;;;;;;;;;5027622;28;20113;-49
2023/01/02 15:09:54;;;;;;;6.82;3.17;;;;;;;;;;5024834;28;20028;-48
2023/01/02 15:15:17;;;;;;;8.05;2.80;;;;;;;;;;5020981;28;20427;-49
2023/01/02 15:17:47;;;;;;;4.68;2.80;;;;;;;;;;5030269;28;20037;-51
2023/01/02 15:20:18;;;;;;;6.50;2.70;;;;;;;;;;5029810;28;20171;-47
2023/01/02 15:22:45;;;;;;;6.50;2.70;;;;;;;;;;5029734;28;20041;-49
2023/01/02 15:25:28;;;;;;;8.40;3.05;;;;;;;;;;5030442;28;20464;-50
2023/01/02 15:27:54;;;;;;;7.72;3.30;;;;;;;;;;5029788;28;20083;-47
2023/01/02 15:30:27;;;;;;;8.30;2.88;;;;;;;;;;5011806;28;20033;-48
2023/01/02 15:32:53;;;;;;;5.88;2.72;;;;;;;;;;5029653;28;20510;-47
2023/01/02 15:35:23;;;;;;;5.93;2.63;;;;;;;;;;5030089;28;20033;-48
2023/01/02 15:37:50;;;;;;;6.93;2.72;;;;;;;;;;5030027;28;20091;-50
2023/01/02 15:40:33;;;;;;;11.23;6.95;;;;;;;;;;5030309;28;20038;-47
2023/01/02 15:45:48;;;;;;;11.20;4.97;;;;;;;;;;5029885;28;20117;-48
2023/01/02 15:48:14;;;;;;;11.48;3.88;;;;;;;;;;5028278;28;20048;-48
2023/01/02 15:50:41;;;;;;;7.80;2.95;;;;;;;;;;5029541;28;20055;-50
2023/01/02 15:53:08;;;;;;;5.40;2.85;;;;;;;;;;5029960;28;20021;-48
2023/01/02 15:55:39;;;;;;;6.40;2.97;;;;;;;;;;5028718;28;20590;-49
2023/01/02 15:58:14;;;;;;;3.95;2.60;;;;;;;;;;5030306;28;20060;-50
2023/01/02 16:00:40;;;;;;;5.22;3.17;;;;;;;;;;5029619;28;20029;-48
2023/01/02 16:03:08;;;;;;;7.15;2.85;;;;;;;;;;5029508;28;20055;-49
2023/01/02 16:06:05;;;;;;;6.47;2.78;;;;;;;;;;5019897;28;20030;-46
2023/01/02 16:08:32;;;;;;;5.60;2.67;;;;;;;;;;4999856;28;20095;-48
2023/01/02 16:11:01;;;;;;;5.57;2.45;;;;;;;;;;5021010;28;20775;-48
2023/01/02 16:16:17;;;;;;;4.70;2.55;;;;;;;;;;5030024;28;20428;-48
2023/01/02 16:18:45;;;;;;;5.20;2.75;;;;;;;;;;5028384;28;20141;-49
2023/01/02 16:21:13;;;;;;;7.80;2.80;;;;;;;;;;5023596;28;20440;-48
2023/01/02 16:23:39;;;;;;;4.57;2.38;;;;;;;;;;5029064;28;20036;-49
2023/01/02 16:26:11;;;;;;;6.28;2.85;;;;;;;;;;5006641;28;20025;-46
2023/01/02 16:28:38;;;;;;;5.45;2.53;;;;;;;;;;5028780;28;20513;-50
2023/01/02 16:31:14;;;;;;;6.45;2.90;;;;;;;;;;5030269;28;20022;-48
2023/01/02 16:33:42;;;;;;;5.90;2.80;;;;;;;;;;5022852;28;20033;-48
2023/01/02 16:36:20;;;;;;;6.57;2.50;;;;;;;;;;5016582;28;20022;-50
2023/01/02 16:38:49;;;;;;;8.25;3.60;;;;;;;;;;5023617;28;20060;-48
2023/01/02 16:43:51;;;;;;;8.57;3.67;;;;;;;;;;6037970;23;20080;-44
2023/01/02 16:46:17;;;;;;;10.65;3.35;;;;;;;;;;5026222;28;20047;-48
2023/01/02 16:48:43;;;;;;;8.48;3.47;;;;;;;;;;5032465;28;20523;-47
2023/01/02 16:51:09;;;;;;;8.13;3.17;;;;;;;;;;5045755;28;20375;-47
2023/01/02 16:53:35;;;;;;;4.63;2.90;;;;;;;;;;5037661;28;20124;-50
2023/01/02 16:56:03;;;;;;;6.18;3.22;;;;;;;;;;5033649;28;20479;-50
2023/01/02 16:58:29;;;;;;;6.70;2.97;;;;;;;;;;5022018;28;20577;-47
2023/01/02 17:00:55;;;;;;;6.63;3.17;;;;;;;;;;5038281;28;20029;-46
2023/01/02 17:03:23;;;;;;;8.68;3.70;;;;;;;;;;5030914;28;20499;-46
2023/01/02 17:05:51;;;;;;;8.40;3.47;;;;;;;;;;5022633;28;20029;-48
2023/01/02 17:08:17;;;;;;;4.55;2.50;;;;;;;;;;5028773;28;20091;-51
2023/01/02 17:10:43;;;;;;;4.15;2.63;;;;;;;;;;5029495;28;20936;-46
2023/01/02 17:13:09;;;;;;;5.00;2.50;;;;;;;;;;5028806;28;20037;-47
2023/01/02 17:15:35;;;;;;;4.13;2.58;;;;;;;;;;5041261;28;20032;-46
2023/01/02 17:18:01;;;;;;;3.88;2.80;;;;;;;;;;5034810;28;20068;-48
2023/01/02 17:20:27;;;;;;;4.50;1.85;;;;;;;;;;5045683;28;20026;-49
2023/01/02 17:22:54;;;;;;;4.38;2.00;;;;;;;;;;5040616;28;20104;-48
2023/01/02 17:25:20;;;;;;;2.20;1.70;;;;;;;;;;5030962;28;20108;-47
2023/01/02 17:27:46;;;;;;;2.60;1.70;;;;;;;;;;5035511;28;20047;-47
2023/01/02 17:30:13;;;;;;;2.30;1.45;;;;;;;;;;5039950;28;20025;-47
2023/01/02 17:32:40;;;;;;;3.17;1.45;;;;;;;;;;5014115;28;20038;-48
2023/01/02 17:35:06;;;;;;;2.30;1.75;;;;;;;;;;5027701;28;20083;-49
2023/01/02 17:37:32;;;;;;;2.40;1.50;;;;;;;;;;5045992;28;20037;-46
2023/01/02 17:39:58;;;;;;;2.03;1.45;;;;;;;;;;5031396;28;20127;-49
2023/01/02 17:42:24;;;;;;;4.72;2.13;;;;;;;;;;5033388;28;20026;-51
2023/01/02 17:44:50;;;;;;;7.38;3.40;;;;;;;;;;5042826;28;20033;-47
2023/01/02 17:47:16;;;;;;;7.63;4.68;;;;;;;;;;5033629;28;20057;-49
2023/01/02 17:49:43;;;;;;;9.75;5.22;;;;;;;;;;5028920;28;20514;-49
2023/01/02 17:52:11;;;;;;;6.90;4.20;;;;;;;;;;5029594;28;20492;-50
2023/01/02 17:54:37;;;;;;;7.68;3.95;;;;;;;;;;5037320;28;20025;-49
2023/01/02 17:57:03;;;;;;;7.80;3.97;;;;;;;;;;5044486;28;20075;-49
2023/01/02 17:59:29;;;;;;;8.13;5.05;;;;;;;;;;5031381;28;20495;-49
2023/01/02 18:01:55;;;;;;;6.93;4.70;;;;;;;;;;5030317;28;20387;-50
2023/01/02 18:04:21;;;;;;;5.47;3.70;;;;;;;;;;5031899;28;20030;-51
2023/01/02 18:06:47;;;;;;;4.70;3.40;;;;;;;;;;5030029;28;20057;-49
2023/01/02 18:09:13;;;;;;;5.22;3.35;;;;;;;;;;5028358;28;20053;-48
2023/01/02 18:11:39;;;;;;;3.45;2.88;;;;;;;;;;5040439;28;20037;-45
2023/01/02 18:14:11;;;;;;;4.10;2.78;;;;;;;;;;5048692;28;20021;-46
2023/01/02 18:16:38;;;;;;;2.85;2.40;;;;;;;;;;5048328;28;20028;-48
2023/01/02 18:19:14;;;;;;;3.35;2.33;;;;;;;;;;5047363;28;20025;-47
2023/01/02 18:21:42;;;;;;;2.92;2.25;;;;;;;;;;5039623;28;20025;-46
2023/01/02 18:24:12;;;;;;;3.17;2.55;;;;;;;;;;5030423;28;20475;-47
2023/01/02 18:26:38;;;;;;;4.55;2.63;;;;;;;;;;5027618;28;20104;-47
2023/01/02 18:29:05;;;;;;;8.63;5.18;;;;;;;;;;5028230;28;20736;-48
2023/01/02 18:31:38;;;;;;;9.52;5.45;;;;;;;;;;5026874;28;20029;-48
2023/01/02 18:34:24;;;;;;;9.27;5.90;;;;;;;;;;5009964;28;20029;-46
2023/01/02 18:36:50;;;;;;;9.30;4.70;;;;;;;;;;5027124;28;20033;-47
2023/01/02 18:39:19;;;;;;;9.45;5.18;;;;;;;;;;5035317;28;20025;-47
2023/01/02 18:41:46;;;;;;;6.78;3.75;;;;;;;;;;5027127;28;20076;-49
2023/01/02 18:44:18;;;;;;;5.03;3.55;;;;;;;;;;5026535;28;20079;-48
2023/01/02 18:46:44;;;;;;;4.38;3.25;;;;;;;;;;5030136;28;20033;-47
2023/01/02 18:49:25;;;;;;;3.88;3.05;;;;;;;;;;5027052;28;20037;-50
2023/01/02 18:51:54;;;;;;;5.57;3.22;;;;;;;;;;5026127;28;20037;-46
2023/01/02 18:54:30;;;;;;;4.72;3.15;;;;;;;;;;5008735;28;20033;-46
2023/01/02 18:56:58;;;;;;;4.63;3.38;;;;;;;;;;5026426;28;20037;-46
2023/01/02 18:59:29;;;;;;;3.20;2.30;;;;;;;;;;5012741;28;20041;-49
2023/01/02 19:01:59;;;;;;;2.83;2.17;;;;;;;;;;5026152;28;20025;-47
2023/01/02 19:04:27;;;;;;;3.97;2.15;;;;;;;;;;5036820;28;20032;-49
2023/01/02 19:06:54;;;;;;;2.40;1.85;;;;;;;;;;5026146;28;20029;-48
2023/01/02 19:09:34;;;;;;;2.20;1.67;;;;;;;;;;5032380;28;20032;-46
2023/01/02 19:13:07;;;;;;;2.63;1.90;;;;;;;;;;5029216;28;20116;-48
2023/01/02 19:15:25;;;;;;;2.40;1.90;;;;;;;;;;5008571;28;20033;-49
2023/01/02 19:17:51;;;;;;;2.92;2.20;;;;;;;;;;5041252;28;20055;-47
2023/01/02 19:20:17;;;;;;;2.72;1.70;;;;;;;;;;5038305;28;20032;-46
2023/01/02 19:22:45;;;;;;;2.22;1.83;;;;;;;;;;5030977;28;20045;-47
2023/01/02 19:25:18;;;;;;;2.92;1.85;;;;;;;;;;5039277;28;20118;-48
2023/01/02 19:27:44;;;;;;;2.70;2.15;;;;;;;;;;5031663;28;20638;-48
2023/01/02 19:30:30;;;;;;;2.13;1.70;;;;;;;;;;5040693;28;20122;-46
2023/01/02 19:32:56;;;;;;;1.73;1.45;;;;;;;;;;5036776;28;20025;-47
2023/01/02 19:35:42;;;;;;;1.27;1.17;;;;;;;;;;5040100;28;20108;-46
2023/01/02 19:38:21;;;;;;;1.45;1.10;;;;;;;;;;4973602;28;20131;-48
2023/01/02 19:40:47;;;;;;;0.60;0.60;;;;;;;;;;5026487;28;20051;-49
2023/01/02 19:43:12;;;;;;;1.05;0.80;;;;;;;;;;5026925;28;20025;-48
2023/01/02 19:45:38;;;;;;;1.35;0.70;;;;;;;;;;5034680;28;20040;-46
2023/01/02 19:48:04;;;;;;;0.70;0.70;;;;;;;;;;5030667;28;20083;-46
2023/01/02 19:50:31;;;;;;;0.80;0.70;;;;;;;;;;5032054;28;20021;-49
2023/01/02 19:52:57;;;;;;;0.60;0.60;;;;;;;;;;5045551;28;20037;-47
2023/01/02 19:55:24;;;;;;;1.45;0.70;;;;;;;;;;5032754;28;20431;-46
2023/01/02 19:57:50;;;;;;;0.95;0.70;;;;;;;;;;5008991;28;20057;-46
2023/01/02 20:00:18;;;;;;;0.82;0.80;;;;;;;;;;5044576;28;20107;-48
2023/01/02 20:02:46;;;;;;;0.90;0.70;;;;;;;;;;5032884;28;20262;-49
2023/01/02 20:05:15;;;;;;;0.60;0.60;;;;;;;;;;5047614;28;20017;-47
2023/01/02 20:07:41;;;;;;;0.80;0.80;;;;;;;;;;5039399;28;20029;-45
2023/01/02 20:10:07;;;;;;;0.50;0.50;;;;;;;;;;5037697;28;20089;-46
2023/01/02 20:12:39;;;;;;;0.50;0.50;;;;;;;;;;5011439;28;20492;-49
2023/01/02 20:15:05;;;;;;;0.50;0.50;;;;;;;;;;5037872;28;20021;-46
2023/01/02 20:17:31;;;;;;;0.40;0.40;;;;;;;;;;5029449;28;20033;-50
2023/01/02 20:19:58;;;;;;;0.43;0.43;;;;;;;;;;5026923;28;20112;-50
2023/01/02 20:22:24;;;;;;;1.00;0.70;;;;;;;;;;5027171;28;20025;-47
2023/01/02 20:24:52;;;;;;;0.70;0.70;;;;;;;;;;5035889;28;20109;-46
2023/01/02 20:27:19;;;;;;;1.30;0.90;;;;;;;;;;5038534;28;20510;-49